createdAt,value
2022-08-01T00:00:08.747Z,0.00
2022-08-01T00:01:07.518Z,0.00
2022-08-01T00:02:07.969Z,0.00
2022-08-01T00:03:07.563Z,0.00
2022-08-01T00:04:07.586Z,0.00
2022-08-01T00:05:07.609Z,0.00
2022-08-01T00:06:07.632Z,0.00
2022-08-01T00:07:07.654Z,0.00
2022-08-01T00:08:07.678Z,0.00
2022-08-01T00:09:07.700Z,0.00
2022-08-01T00:10:07.724Z,0.00
2022-08-01T00:11:07.745Z,0.00
2022-08-01T00:12:07.884Z,0.00
2022-08-01T00:13:07.790Z,0.00
2022-08-01T00:14:07.813Z,0.00
2022-08-01T00:15:07.839Z,0.00
2022-08-01T00:16:07.861Z,0.00
2022-08-01T00:17:07.881Z,0.00
2022-08-01T00:18:07.908Z,0.00
2022-08-01T00:19:07.928Z,0.00
2022-08-01T00:20:07.952Z,0.00
2022-08-01T00:21:07.973Z,0.00
2022-08-01T00:22:08.299Z,0.00
2022-08-01T00:23:08.019Z,0.00
2022-08-01T00:24:08.044Z,0.00
2022-08-01T00:25:08.066Z,0.00
2022-08-01T00:26:08.088Z,0.00
2022-08-01T00:27:08.113Z,0.00
2022-08-01T00:28:08.135Z,0.00
2022-08-01T00:29:11.543Z,0.00
2022-08-01T00:30:12.645Z,0.00
2022-08-01T00:31:08.201Z,0.00
2022-08-01T00:32:08.384Z,0.00
2022-08-01T00:33:08.249Z,0.00
2022-08-01T00:34:08.272Z,0.00
2022-08-01T00:35:08.292Z,0.00
2022-08-01T00:36:08.316Z,0.00
2022-08-01T00:37:08.353Z,0.00
2022-08-01T00:38:08.371Z,0.00
2022-08-01T00:39:08.389Z,0.00
2022-08-01T00:40:08.422Z,0.00
2022-08-01T00:41:08.427Z,0.00
2022-08-01T00:42:08.518Z,0.00
2022-08-01T00:43:08.474Z,0.00
2022-08-01T00:44:08.519Z,0.00
2022-08-01T00:45:08.520Z,0.00
2022-08-01T00:46:08.543Z,0.00
2022-08-01T00:47:08.566Z,0.00
2022-08-01T00:48:08.591Z,0.00
2022-08-01T00:49:10.430Z,0.00
2022-08-01T00:50:08.634Z,0.00
2022-08-01T00:51:08.657Z,0.00
2022-08-01T00:52:08.811Z,0.00
2022-08-01T00:53:08.701Z,0.00
2022-08-01T00:54:08.723Z,0.00
2022-08-01T00:55:08.748Z,0.00
2022-08-01T00:56:08.772Z,0.00
2022-08-01T00:57:09.915Z,0.00
2022-08-01T00:58:08.815Z,0.00
2022-08-01T00:59:08.837Z,0.00
2022-08-01T01:00:08.865Z,0.00
2022-08-01T01:01:08.947Z,0.00
2022-08-01T01:02:15.775Z,0.00
2022-08-01T01:03:08.929Z,0.00
2022-08-01T01:04:08.951Z,0.00
2022-08-01T01:05:08.974Z,0.00
2022-08-01T01:06:08.997Z,0.00
2022-08-01T01:07:09.020Z,0.00
2022-08-01T01:08:09.042Z,0.00
2022-08-01T01:09:09.067Z,0.00
2022-08-01T01:10:09.087Z,0.00
2022-08-01T01:11:09.113Z,0.00
2022-08-01T01:12:09.483Z,0.00
2022-08-01T01:13:09.158Z,0.00
2022-08-01T01:14:09.177Z,0.00
2022-08-01T01:15:09.203Z,0.00
2022-08-01T01:16:09.223Z,0.00
2022-08-01T01:17:09.246Z,0.00
2022-08-01T01:18:09.267Z,0.00
2022-08-01T01:19:09.292Z,0.00
2022-08-01T01:20:09.317Z,0.00
2022-08-01T01:21:09.339Z,0.00
2022-08-01T01:22:09.358Z,0.00
2022-08-01T01:23:09.399Z,0.00
2022-08-01T01:24:09.406Z,0.00
2022-08-01T01:25:09.433Z,0.00
2022-08-01T01:26:09.449Z,0.00
2022-08-01T01:27:09.471Z,0.00
2022-08-01T01:28:09.500Z,0.00
2022-08-01T01:29:09.517Z,0.00
2022-08-01T01:30:09.542Z,0.00
2022-08-01T01:31:10.978Z,0.00
2022-08-01T01:32:09.587Z,0.00
2022-08-01T01:33:09.608Z,0.00
2022-08-01T01:34:09.631Z,0.00
2022-08-01T01:35:09.656Z,0.00
2022-08-01T01:36:11.684Z,0.00
2022-08-01T01:37:09.698Z,0.00
2022-08-01T01:38:09.721Z,0.00
2022-08-01T01:39:09.743Z,0.00
2022-08-01T01:40:09.766Z,0.00
2022-08-01T01:41:09.787Z,0.00
2022-08-01T01:42:09.811Z,0.00
2022-08-01T01:43:09.833Z,0.00
2022-08-01T01:44:09.857Z,0.00
2022-08-01T01:45:09.877Z,0.00
2022-08-01T01:46:09.910Z,0.00
2022-08-01T01:47:09.926Z,0.00
2022-08-01T01:48:09.952Z,0.00
2022-08-01T01:49:09.997Z,0.00
2022-08-01T01:50:09.991Z,0.00
2022-08-01T01:51:10.015Z,0.00
2022-08-01T01:52:10.065Z,0.00
2022-08-01T01:53:14.889Z,0.00
2022-08-01T01:54:10.081Z,0.00
2022-08-01T01:55:10.106Z,0.00
2022-08-01T01:56:10.126Z,0.00
2022-08-01T01:57:10.148Z,0.00
2022-08-01T01:58:10.172Z,0.00
2022-08-01T01:59:10.194Z,0.00
2022-08-01T02:00:10.218Z,0.00
2022-08-01T02:01:14.613Z,0.00
2022-08-01T02:02:10.800Z,0.00
2022-08-01T02:03:10.295Z,0.00
2022-08-01T02:04:10.312Z,0.00
2022-08-01T02:05:10.328Z,0.00
2022-08-01T02:06:10.351Z,0.00
2022-08-01T02:07:10.373Z,0.00
2022-08-01T02:08:10.399Z,0.00
2022-08-01T02:09:10.417Z,0.00
2022-08-01T02:10:10.440Z,0.00
2022-08-01T02:11:10.464Z,0.00
2022-08-01T02:12:10.707Z,0.00
2022-08-01T02:13:10.507Z,0.00
2022-08-01T02:14:10.528Z,0.00
2022-08-01T02:15:10.553Z,0.00
2022-08-01T02:16:10.574Z,0.00
2022-08-01T02:17:10.595Z,0.00
2022-08-01T02:18:10.617Z,0.00
2022-08-01T02:19:10.640Z,0.00
2022-08-01T02:20:10.666Z,0.00
2022-08-01T02:21:10.684Z,0.00
2022-08-01T02:22:10.707Z,0.00
2022-08-01T02:23:10.737Z,0.00
2022-08-01T02:24:10.750Z,0.00
2022-08-01T02:25:10.773Z,0.00
2022-08-01T02:26:11.660Z,0.00
2022-08-01T02:27:10.818Z,0.00
2022-08-01T02:28:10.839Z,0.00
2022-08-01T02:29:10.861Z,0.00
2022-08-01T02:30:10.885Z,0.00
2022-08-01T02:31:10.907Z,0.00
2022-08-01T02:32:10.935Z,0.00
2022-08-01T02:33:16.046Z,0.00
2022-08-01T02:34:10.990Z,0.00
2022-08-01T02:35:11.008Z,0.00
2022-08-01T02:36:30.709Z,0.00
2022-08-01T02:37:11.035Z,0.00
2022-08-01T02:38:11.063Z,0.00
2022-08-01T02:39:11.085Z,0.00
2022-08-01T02:40:14.056Z,0.00
2022-08-01T02:41:11.128Z,0.00
2022-08-01T02:42:11.150Z,0.00
2022-08-01T02:43:11.174Z,0.00
2022-08-01T02:44:11.192Z,0.00
2022-08-01T02:45:11.221Z,0.00
2022-08-01T02:46:11.235Z,0.00
2022-08-01T02:47:11.277Z,0.00
2022-08-01T02:48:11.285Z,4.00
2022-08-01T02:49:11.407Z,4.00
2022-08-01T02:50:11.323Z,4.00
2022-08-01T02:51:11.345Z,4.00
2022-08-01T02:52:11.368Z,0.00
2022-08-01T02:53:11.392Z,4.00
2022-08-01T02:54:11.415Z,4.00
2022-08-01T02:55:11.434Z,8.00
2022-08-01T02:56:11.455Z,4.00
2022-08-01T02:57:13.751Z,4.00
2022-08-01T02:58:11.501Z,8.00
2022-08-01T02:59:11.518Z,8.00
2022-08-01T03:00:11.545Z,8.00
2022-08-01T03:01:11.606Z,12.00
2022-08-01T03:02:11.616Z,16.00
2022-08-01T03:03:11.625Z,20.00
2022-08-01T03:04:11.632Z,20.00
2022-08-01T03:05:11.652Z,24.00
2022-08-01T03:06:11.677Z,24.00
2022-08-01T03:07:11.697Z,28.00
2022-08-01T03:08:14.570Z,32.00
2022-08-01T03:09:11.740Z,40.00
2022-08-01T03:10:11.763Z,44.00
2022-08-01T03:11:11.785Z,48.00
2022-08-01T03:12:11.809Z,56.00
2022-08-01T03:13:11.829Z,60.00
2022-08-01T03:14:11.851Z,72.00
2022-08-01T03:15:11.872Z,80.00
2022-08-01T03:16:11.906Z,88.00
2022-08-01T03:17:11.916Z,96.00
2022-08-01T03:18:11.938Z,108.00
2022-08-01T03:19:11.960Z,120.00
2022-08-01T03:20:11.984Z,140.00
2022-08-01T03:21:12.003Z,156.00
2022-08-01T03:22:12.027Z,160.00
2022-08-01T03:23:12.049Z,164.00
2022-08-01T03:24:12.073Z,180.00
2022-08-01T03:25:12.092Z,200.00
2022-08-01T03:26:12.114Z,220.00
2022-08-01T03:27:12.134Z,244.00
2022-08-01T03:28:12.159Z,264.00
2022-08-01T03:29:12.178Z,288.00
2022-08-01T03:30:12.210Z,304.00
2022-08-01T03:31:12.238Z,308.00
2022-08-01T03:32:12.264Z,312.00
2022-08-01T03:33:14.517Z,316.00
2022-08-01T03:34:12.292Z,332.00
2022-08-01T03:35:12.310Z,344.00
2022-08-01T03:36:12.333Z,372.00
2022-08-01T03:37:12.355Z,424.00
2022-08-01T03:38:16.639Z,456.00
2022-08-01T03:39:12.398Z,468.00
2022-08-01T03:40:12.419Z,488.00
2022-08-01T03:41:12.442Z,536.00
2022-08-01T03:42:12.462Z,564.00
2022-08-01T03:43:12.485Z,532.00
2022-08-01T03:44:12.506Z,544.00
2022-08-01T03:45:13.361Z,564.00
2022-08-01T03:46:12.550Z,596.00
2022-08-01T03:47:12.572Z,692.00
2022-08-01T03:48:12.594Z,792.00
2022-08-01T03:49:12.640Z,840.00
2022-08-01T03:50:12.737Z,896.00
2022-08-01T03:51:12.659Z,924.00
2022-08-01T03:52:12.682Z,960.00
2022-08-01T03:53:12.704Z,928.00
2022-08-01T03:54:12.725Z,812.00
2022-08-01T03:55:12.750Z,704.00
2022-08-01T03:56:12.769Z,604.00
2022-08-01T03:57:23.371Z,616.00
2022-08-01T03:58:12.812Z,696.00
2022-08-01T03:59:12.834Z,664.00
2022-08-01T04:00:12.857Z,696.00
2022-08-01T04:01:15.464Z,804.00
2022-08-01T04:02:12.899Z,948.00
2022-08-01T04:03:12.922Z,1164.00
2022-08-01T04:04:12.946Z,1220.00
2022-08-01T04:05:12.968Z,1336.00
2022-08-01T04:06:12.987Z,1196.00
2022-08-01T04:07:13.011Z,1016.00
2022-08-01T04:08:13.035Z,908.00
2022-08-01T04:09:13.798Z,764.00
2022-08-01T04:10:13.080Z,764.00
2022-08-01T04:11:13.098Z,884.00
2022-08-01T04:12:13.178Z,1036.00
2022-08-01T04:13:13.145Z,936.00
2022-08-01T04:14:13.164Z,864.00
2022-08-01T04:15:13.192Z,720.00
2022-08-01T04:16:13.210Z,744.00
2022-08-01T04:17:13.238Z,840.00
2022-08-01T04:18:13.254Z,872.00
2022-08-01T04:19:13.276Z,856.00
2022-08-01T04:20:13.300Z,852.00
2022-08-01T04:21:13.320Z,944.00
2022-08-01T04:22:13.345Z,880.00
2022-08-01T04:23:13.375Z,824.00
2022-08-01T04:24:13.392Z,860.00
2022-08-01T04:25:13.414Z,864.00
2022-08-01T04:26:13.436Z,840.00
2022-08-01T04:27:13.455Z,856.00
2022-08-01T04:28:13.478Z,872.00
2022-08-01T04:29:13.499Z,968.00
2022-08-01T04:30:13.530Z,1192.00
2022-08-01T04:31:13.542Z,1420.00
2022-08-01T04:32:13.571Z,1264.00
2022-08-01T04:33:13.589Z,1572.00
2022-08-01T04:34:13.609Z,1464.00
2022-08-01T04:35:23.575Z,1588.00
2022-08-01T04:36:13.654Z,1716.00
2022-08-01T04:37:13.677Z,1844.00
2022-08-01T04:38:13.709Z,1628.00
2022-08-01T04:39:13.722Z,1428.00
2022-08-01T04:40:13.757Z,1356.00
2022-08-01T04:41:13.764Z,1160.00
2022-08-01T04:42:13.789Z,1072.00
2022-08-01T04:43:14.936Z,1096.00
2022-08-01T04:44:13.833Z,1220.00
2022-08-01T04:45:13.855Z,1384.00
2022-08-01T04:46:13.879Z,1580.00
2022-08-01T04:47:13.901Z,1576.00
2022-08-01T04:48:13.922Z,1588.00
2022-08-01T04:49:14.010Z,1636.00
2022-08-01T04:50:13.965Z,1740.00
2022-08-01T04:51:13.990Z,1548.00
2022-08-01T04:52:18.080Z,1176.00
2022-08-01T04:53:14.031Z,1512.00
2022-08-01T04:54:14.054Z,1332.00
2022-08-01T04:55:14.084Z,1252.00
2022-08-01T04:56:14.389Z,1204.00
2022-08-01T04:57:14.121Z,1064.00
2022-08-01T04:58:17.707Z,1080.00
2022-08-01T04:59:19.832Z,1132.00
2022-08-01T05:00:14.188Z,1336.00
2022-08-01T05:01:14.288Z,1468.00
2022-08-01T05:02:14.232Z,1520.00
2022-08-01T05:03:14.263Z,1460.00
2022-08-01T05:04:14.278Z,1556.00
2022-08-01T05:05:14.304Z,1652.00
2022-08-01T05:06:14.321Z,1788.00
2022-08-01T05:07:14.345Z,1640.00
2022-08-01T05:08:14.368Z,1648.00
2022-08-01T05:09:14.389Z,1600.00
2022-08-01T05:10:14.412Z,1520.00
2022-08-01T05:11:14.434Z,1476.00
2022-08-01T05:12:14.457Z,1416.00
2022-08-01T05:13:14.482Z,1688.00
2022-08-01T05:14:14.507Z,1676.00
2022-08-01T05:15:15.715Z,1964.00
2022-08-01T05:16:14.545Z,2420.00
2022-08-01T05:17:14.567Z,2952.00
2022-08-01T05:18:14.588Z,3816.00
2022-08-01T05:19:14.612Z,4696.00
2022-08-01T05:20:14.634Z,5384.00
2022-08-01T05:21:14.656Z,5076.00
2022-08-01T05:22:14.680Z,4084.00
2022-08-01T05:23:26.851Z,3672.00
2022-08-01T05:24:14.724Z,3780.00
2022-08-01T05:25:20.432Z,4020.00
2022-08-01T05:26:14.903Z,4244.00
2022-08-01T05:27:15.612Z,4788.00
2022-08-01T05:28:19.071Z,5132.00
2022-08-01T05:29:14.835Z,5416.00
2022-08-01T05:30:14.857Z,5904.00
2022-08-01T05:31:14.880Z,6996.00
2022-08-01T05:32:14.912Z,7916.00
2022-08-01T05:33:14.928Z,9008.00
2022-08-01T05:34:15.309Z,9680.00
2022-08-01T05:35:14.972Z,9652.00
2022-08-01T05:36:14.996Z,10340.00
2022-08-01T05:37:15.015Z,9284.00
2022-08-01T05:38:15.225Z,10904.00
2022-08-01T05:39:15.059Z,10620.00
2022-08-01T05:40:15.084Z,11924.00
2022-08-01T05:41:15.109Z,10792.00
2022-08-01T05:42:15.130Z,10912.00
2022-08-01T05:43:15.150Z,7168.00
2022-08-01T05:44:15.177Z,6376.00
2022-08-01T05:45:15.196Z,6180.00
2022-08-01T05:46:15.224Z,4796.00
2022-08-01T05:47:15.242Z,4188.00
2022-08-01T05:48:15.265Z,4328.00
2022-08-01T05:49:15.367Z,6152.00
2022-08-01T05:50:15.315Z,6572.00
2022-08-01T05:51:15.336Z,7192.00
2022-08-01T05:52:15.361Z,8224.00
2022-08-01T05:53:15.381Z,7972.00
2022-08-01T05:54:15.402Z,7984.00
2022-08-01T05:55:15.424Z,6224.00
2022-08-01T05:56:15.449Z,4872.00
2022-08-01T05:57:15.472Z,5208.00
2022-08-01T05:58:15.494Z,5256.00
2022-08-01T05:59:15.517Z,5464.00
2022-08-01T06:00:15.542Z,5980.00
2022-08-01T06:01:15.563Z,6892.00
2022-08-01T06:02:15.653Z,7860.00
2022-08-01T06:03:15.610Z,8188.00
2022-08-01T06:04:15.633Z,7004.00
2022-08-01T06:05:15.654Z,5732.00
2022-08-01T06:06:15.679Z,5728.00
2022-08-01T06:07:15.703Z,7124.00
2022-08-01T06:08:15.729Z,7872.00
2022-08-01T06:09:15.745Z,7252.00
2022-08-01T06:10:15.773Z,7308.00
2022-08-01T06:11:15.793Z,6108.00
2022-08-01T06:12:15.817Z,4904.00
2022-08-01T06:13:15.839Z,4364.00
2022-08-01T06:14:15.863Z,4996.00
2022-08-01T06:15:15.888Z,6680.00
2022-08-01T06:16:15.911Z,8616.00
2022-08-01T06:17:15.933Z,5480.00
2022-08-01T06:18:15.956Z,5312.00
2022-08-01T06:19:15.980Z,4768.00
2022-08-01T06:20:16.002Z,4360.00
2022-08-01T06:21:16.024Z,4216.00
2022-08-01T06:22:16.051Z,5192.00
2022-08-01T06:23:32.366Z,4476.00
2022-08-01T06:24:16.098Z,4756.00
2022-08-01T06:25:20.712Z,4480.00
2022-08-01T06:26:16.141Z,3912.00
2022-08-01T06:27:21.378Z,4036.00
2022-08-01T06:28:16.189Z,4748.00
2022-08-01T06:29:16.213Z,7404.00
2022-08-01T06:30:16.235Z,7044.00
2022-08-01T06:31:16.259Z,7940.00
2022-08-01T06:32:24.212Z,8804.00
2022-08-01T06:33:16.301Z,9776.00
2022-08-01T06:34:16.325Z,10196.00
2022-08-01T06:35:16.351Z,9784.00
2022-08-01T06:36:16.373Z,11040.00
2022-08-01T06:37:16.397Z,11172.00
2022-08-01T06:38:16.419Z,10504.00
2022-08-01T06:39:16.441Z,10276.00
2022-08-01T06:40:17.460Z,9852.00
2022-08-01T06:41:16.485Z,12680.00
2022-08-01T06:42:16.510Z,13396.00
2022-08-01T06:43:16.533Z,14392.00
2022-08-01T06:44:16.556Z,17504.00
2022-08-01T06:45:16.595Z,18912.00
2022-08-01T06:46:16.603Z,14292.00
2022-08-01T06:47:16.625Z,9508.00
2022-08-01T06:48:16.651Z,7968.00
2022-08-01T06:49:16.713Z,8564.00
2022-08-01T06:50:16.694Z,9480.00
2022-08-01T06:51:16.718Z,9204.00
2022-08-01T06:52:16.744Z,7344.00
2022-08-01T06:53:16.766Z,5420.00
2022-08-01T06:54:16.788Z,5492.00
2022-08-01T06:55:16.816Z,8840.00
2022-08-01T06:56:16.836Z,13264.00
2022-08-01T06:57:16.863Z,13476.00
2022-08-01T06:58:16.884Z,11388.00
2022-08-01T06:59:16.906Z,10288.00
2022-08-01T07:00:16.929Z,9472.00
2022-08-01T07:01:16.990Z,10588.00
2022-08-01T07:02:16.977Z,13020.00
2022-08-01T07:03:17.000Z,14616.00
2022-08-01T07:04:17.024Z,17696.00
2022-08-01T07:05:17.058Z,15428.00
2022-08-01T07:06:17.087Z,14988.00
2022-08-01T07:07:17.093Z,13316.00
2022-08-01T07:08:17.121Z,12648.00
2022-08-01T07:09:17.145Z,13876.00
2022-08-01T07:10:17.184Z,11068.00
2022-08-01T07:11:17.193Z,9024.00
2022-08-01T07:12:17.215Z,7964.00
2022-08-01T07:13:17.242Z,6112.00
2022-08-01T07:14:17.262Z,4716.00
2022-08-01T07:15:17.297Z,5040.00
2022-08-01T07:16:17.310Z,5400.00
2022-08-01T07:17:17.335Z,6936.00
2022-08-01T07:18:17.358Z,6412.00
2022-08-01T07:19:17.384Z,5728.00
2022-08-01T07:20:17.407Z,6476.00
2022-08-01T07:21:38.934Z,7832.00
2022-08-01T07:22:23.389Z,7788.00
2022-08-01T07:23:17.479Z,8612.00
2022-08-01T07:24:17.502Z,11372.00
2022-08-01T07:25:17.529Z,14424.00
2022-08-01T07:26:17.551Z,16164.00
2022-08-01T07:27:23.024Z,18336.00
2022-08-01T07:28:17.609Z,21600.00
2022-08-01T07:29:17.624Z,22592.00
2022-08-01T07:30:17.655Z,24928.00
2022-08-01T07:31:17.671Z,28064.00
2022-08-01T07:32:17.695Z,21280.00
2022-08-01T07:33:17.719Z,16992.00
2022-08-01T07:34:17.743Z,15624.00
2022-08-01T07:35:17.771Z,21440.00
2022-08-01T07:36:17.794Z,26720.00
2022-08-01T07:37:17.818Z,21376.00
2022-08-01T07:38:17.841Z,13120.00
2022-08-01T07:39:17.870Z,7960.00
2022-08-01T07:40:17.897Z,5800.00
2022-08-01T07:41:17.915Z,4768.00
2022-08-01T07:42:17.940Z,4368.00
2022-08-01T07:43:17.965Z,3544.00
2022-08-01T07:44:17.993Z,3112.00
2022-08-01T07:45:18.019Z,3380.00
2022-08-01T07:46:18.038Z,4664.00
2022-08-01T07:47:18.063Z,6372.00
2022-08-01T07:48:18.098Z,8928.00
2022-08-01T07:49:18.160Z,11072.00
2022-08-01T07:50:18.138Z,12280.00
2022-08-01T07:51:18.161Z,12136.00
2022-08-01T07:52:18.533Z,12468.00
2022-08-01T07:53:18.210Z,13148.00
2022-08-01T07:54:18.235Z,14132.00
2022-08-01T07:55:18.261Z,11972.00
2022-08-01T07:56:18.286Z,8800.00
2022-08-01T07:57:18.308Z,6888.00
2022-08-01T07:58:18.332Z,4952.00
2022-08-01T07:59:26.098Z,3560.00
2022-08-01T08:00:18.383Z,3040.00
2022-08-01T08:01:18.439Z,2968.00
2022-08-01T08:02:18.539Z,3936.00
2022-08-01T08:03:18.452Z,6060.00
2022-08-01T08:04:18.481Z,6540.00
2022-08-01T08:05:58.741Z,5984.00
2022-08-01T08:06:18.528Z,5700.00
2022-08-01T08:07:18.549Z,5912.00
2022-08-01T08:08:18.574Z,5884.00
2022-08-01T08:09:18.601Z,5888.00
2022-08-01T08:10:18.625Z,6752.00
2022-08-01T08:11:18.650Z,7428.00
2022-08-01T08:12:18.699Z,6416.00
2022-08-01T08:13:18.745Z,5244.00
2022-08-01T08:14:18.730Z,5104.00
2022-08-01T08:15:18.746Z,5656.00
2022-08-01T08:16:18.766Z,6864.00
2022-08-01T08:17:18.792Z,8348.00
2022-08-01T08:18:18.814Z,8532.00
2022-08-01T08:19:18.838Z,7092.00
2022-08-01T08:20:18.866Z,6240.00
2022-08-01T08:21:18.887Z,8584.00
2022-08-01T08:22:18.913Z,12856.00
2022-08-01T08:23:41.391Z,13120.00
2022-08-01T08:24:18.960Z,12424.00
2022-08-01T08:25:18.984Z,13776.00
2022-08-01T08:26:19.008Z,16712.00
2022-08-01T08:27:19.221Z,18592.00
2022-08-01T08:28:19.054Z,20384.00
2022-08-01T08:29:19.077Z,24384.00
2022-08-01T08:30:19.103Z,29344.00
2022-08-01T08:31:25.555Z,44192.00
2022-08-01T08:32:19.149Z,33600.00
2022-08-01T08:33:19.175Z,29696.00
2022-08-01T08:34:19.200Z,22656.00
2022-08-01T08:35:23.355Z,22912.00
2022-08-01T08:36:19.248Z,31200.00
2022-08-01T08:37:19.277Z,32608.00
2022-08-01T08:38:19.298Z,23872.00
2022-08-01T08:39:19.939Z,18208.00
2022-08-01T08:40:19.349Z,14080.00
2022-08-01T08:41:21.294Z,13560.00
2022-08-01T08:42:19.404Z,11460.00
2022-08-01T08:43:19.431Z,11644.00
2022-08-01T08:44:19.456Z,12000.00
2022-08-01T08:45:19.476Z,13960.00
2022-08-01T08:46:19.501Z,17856.00
2022-08-01T08:47:20.791Z,21248.00
2022-08-01T08:48:19.554Z,22880.00
2022-08-01T08:49:19.650Z,24032.00
2022-08-01T08:50:19.653Z,24544.00
2022-08-01T08:51:19.631Z,24320.00
2022-08-01T08:52:19.654Z,23328.00
2022-08-01T08:53:19.678Z,22528.00
2022-08-01T08:54:19.718Z,21536.00
2022-08-01T08:55:19.866Z,19904.00
2022-08-01T08:56:19.760Z,16592.00
2022-08-01T08:57:19.783Z,13004.00
2022-08-01T08:58:19.809Z,11396.00
2022-08-01T08:59:19.832Z,10176.00
2022-08-01T09:00:19.941Z,9144.00
2022-08-01T09:01:19.885Z,8132.00
2022-08-01T09:02:19.908Z,7280.00
2022-08-01T09:03:19.998Z,6568.00
2022-08-01T09:04:19.972Z,6404.00
2022-08-01T09:05:20.127Z,8236.00
2022-08-01T09:06:20.012Z,11068.00
2022-08-01T09:07:20.037Z,12520.00
2022-08-01T09:08:20.061Z,12744.00
2022-08-01T09:09:20.086Z,13396.00
2022-08-01T09:10:20.171Z,13960.00
2022-08-01T09:11:22.841Z,14072.00
2022-08-01T09:12:20.162Z,13792.00
2022-08-01T09:13:20.188Z,13756.00
2022-08-01T09:14:20.212Z,13800.00
2022-08-01T09:15:20.237Z,13548.00
2022-08-01T09:16:20.265Z,13156.00
2022-08-01T09:17:20.291Z,13804.00
2022-08-01T09:18:20.312Z,13904.00
2022-08-01T09:19:39.472Z,13912.00
2022-08-01T09:20:20.364Z,13200.00
2022-08-01T09:21:20.387Z,11408.00
2022-08-01T09:22:20.412Z,10500.00
2022-08-01T09:23:20.438Z,9892.00
2022-08-01T09:24:30.356Z,8444.00
2022-08-01T09:25:20.488Z,7104.00
2022-08-01T09:26:21.113Z,6944.00
2022-08-01T09:27:21.890Z,9868.00
2022-08-01T09:28:20.562Z,13952.00
2022-08-01T09:29:37.188Z,14728.00
2022-08-01T09:30:23.825Z,14620.00
2022-08-01T09:31:20.639Z,16048.00
2022-08-01T09:32:20.663Z,17856.00
2022-08-01T09:33:21.733Z,19136.00
2022-08-01T09:34:20.714Z,20416.00
2022-08-01T09:35:20.745Z,21440.00
2022-08-01T09:36:20.765Z,22048.00
2022-08-01T09:37:24.186Z,22336.00
2022-08-01T09:38:20.823Z,21632.00
2022-08-01T09:39:20.837Z,21152.00
2022-08-01T09:40:20.863Z,21760.00
2022-08-01T09:41:20.889Z,22880.00
2022-08-01T09:42:20.914Z,21536.00
2022-08-01T09:43:20.940Z,17760.00
2022-08-01T09:44:32.813Z,14640.00
2022-08-01T09:45:23.775Z,12332.00
2022-08-01T09:46:21.018Z,10908.00
2022-08-01T09:47:21.040Z,10124.00
2022-08-01T09:48:22.693Z,8736.00
2022-08-01T09:49:21.157Z,7796.00
2022-08-01T09:50:21.118Z,7652.00
2022-08-01T09:51:58.494Z,7764.00
2022-08-01T09:52:21.169Z,8000.00
2022-08-01T09:53:24.330Z,7356.00
2022-08-01T09:54:21.220Z,6356.00
2022-08-01T09:55:21.245Z,5528.00
2022-08-01T09:56:21.282Z,5412.00
2022-08-01T09:57:21.295Z,5360.00
2022-08-01T09:58:21.319Z,5092.00
2022-08-01T09:59:21.348Z,4708.00
2022-08-01T10:00:43.714Z,4252.00
2022-08-01T10:01:21.396Z,4736.00
2022-08-01T10:02:21.419Z,4964.00
2022-08-01T10:03:21.497Z,4932.00
2022-08-01T10:04:21.476Z,4924.00
2022-08-01T10:05:21.535Z,5660.00
2022-08-01T10:06:21.520Z,7616.00
2022-08-01T10:07:21.545Z,9376.00
2022-08-01T10:08:23.044Z,9864.00
2022-08-01T10:09:21.593Z,9172.00
2022-08-01T10:10:21.618Z,9040.00
2022-08-01T10:11:21.643Z,9744.00
2022-08-01T10:12:21.669Z,10728.00
2022-08-01T10:13:21.691Z,11708.00
2022-08-01T10:14:21.727Z,12276.00
2022-08-01T10:15:21.740Z,12728.00
2022-08-01T10:16:21.764Z,13268.00
2022-08-01T10:17:22.654Z,13392.00
2022-08-01T10:18:25.941Z,11176.00
2022-08-01T10:19:21.841Z,9956.00
2022-08-01T10:20:30.925Z,9748.00
2022-08-01T10:21:53.213Z,9364.00
2022-08-01T10:22:21.929Z,9280.00
2022-08-01T10:23:21.934Z,9824.00
2022-08-01T10:24:21.965Z,10816.00
2022-08-01T10:25:41.408Z,11396.00
2022-08-01T10:26:22.009Z,12360.00
2022-08-01T10:27:37.965Z,13276.00
2022-08-01T10:28:24.215Z,13444.00
2022-08-01T10:29:24.165Z,13520.00
2022-08-01T10:30:23.697Z,13960.00
2022-08-01T10:31:30.854Z,14160.00
2022-08-01T10:32:22.156Z,14668.00
2022-08-01T10:33:51.898Z,16156.00
2022-08-01T10:34:24.371Z,18240.00
2022-08-01T10:35:38.089Z,19776.00
2022-08-01T10:36:22.589Z,20928.00
2022-08-01T10:37:22.280Z,22016.00
2022-08-01T10:38:22.306Z,21760.00
2022-08-01T10:39:22.328Z,20800.00
2022-08-01T10:40:31.042Z,19744.00
2022-08-01T10:41:22.377Z,18880.00
2022-08-01T10:42:22.404Z,18528.00
2022-08-01T10:43:22.490Z,17984.00
2022-08-01T10:44:22.455Z,17504.00
2022-08-01T10:45:22.481Z,15952.00
2022-08-01T10:46:22.505Z,14452.00
2022-08-01T10:47:26.689Z,13152.00
2022-08-01T10:48:22.557Z,12172.00
2022-08-01T10:49:22.635Z,12532.00
2022-08-01T10:50:26.160Z,12952.00
2022-08-01T10:51:51.498Z,11732.00
2022-08-01T10:52:22.658Z,11808.00
2022-08-01T10:53:24.174Z,12448.00
2022-08-01T10:54:25.130Z,12564.00
2022-08-01T10:55:22.734Z,12376.00
2022-08-01T10:56:26.424Z,11884.00
2022-08-01T10:57:23.150Z,12100.00
2022-08-01T10:58:22.810Z,12388.00
2022-08-01T10:59:49.273Z,12008.00
2022-08-01T11:00:22.860Z,11584.00
2022-08-01T11:01:23.012Z,11628.00
2022-08-01T11:02:22.913Z,10248.00
2022-08-01T11:03:41.433Z,9032.00
2022-08-01T11:04:22.961Z,9252.00
2022-08-01T11:05:24.054Z,12344.00
2022-08-01T11:06:23.030Z,16516.00
2022-08-01T11:07:25.764Z,18624.00
2022-08-01T11:08:23.063Z,16564.00
2022-08-01T11:09:23.093Z,14800.00
2022-08-01T11:10:23.620Z,16688.00
2022-08-01T11:11:23.139Z,20544.00
2022-08-01T11:12:25.099Z,23616.00
2022-08-01T11:13:23.190Z,22560.00
2022-08-01T11:14:26.528Z,17152.00
2022-08-01T11:15:29.139Z,12692.00
2022-08-01T11:16:24.321Z,9760.00
2022-08-01T11:17:23.288Z,6968.00
2022-08-01T11:18:27.404Z,4996.00
2022-08-01T11:19:23.341Z,3892.00
2022-08-01T11:20:23.691Z,3676.00
2022-08-01T11:21:58.499Z,3908.00
2022-08-01T11:22:25.492Z,4552.00
2022-08-01T11:23:24.696Z,6064.00
2022-08-01T11:24:23.497Z,6576.00
2022-08-01T11:26:03.858Z,6224.00
2022-08-01T11:26:29.180Z,6068.00
2022-08-01T11:27:23.909Z,5744.00
2022-08-01T11:28:30.251Z,5816.00
2022-08-01T11:29:23.594Z,5476.00
2022-08-01T11:30:23.618Z,6712.00
2022-08-01T11:31:23.642Z,8948.00
2022-08-01T11:32:23.667Z,8972.00
2022-08-01T11:33:23.699Z,10432.00
2022-08-01T11:34:23.719Z,11708.00
2022-08-01T11:35:23.740Z,11280.00
2022-08-01T11:36:55.936Z,9396.00
2022-08-01T11:37:23.790Z,9408.00
2022-08-01T11:38:23.815Z,10940.00
2022-08-01T11:39:23.854Z,12020.00
2022-08-01T11:40:24.756Z,12440.00
2022-08-01T11:41:37.193Z,12376.00
2022-08-01T11:42:23.941Z,12004.00
2022-08-01T11:43:23.938Z,11480.00
2022-08-01T11:44:25.028Z,11580.00
2022-08-01T11:45:23.984Z,12864.00
2022-08-01T11:46:24.052Z,14500.00
2022-08-01T11:47:24.038Z,15088.00
2022-08-01T11:48:27.852Z,15576.00
2022-08-01T11:49:24.154Z,17248.00
2022-08-01T11:50:24.109Z,18624.00
2022-08-01T11:51:25.791Z,19616.00
2022-08-01T11:52:24.168Z,20448.00
2022-08-01T11:53:24.185Z,19936.00
2022-08-01T11:54:35.372Z,20608.00
2022-08-01T11:55:24.232Z,22240.00
2022-08-01T11:56:24.259Z,23168.00
2022-08-01T11:57:24.281Z,23360.00
2022-08-01T11:58:27.495Z,24064.00
2022-08-01T11:59:24.331Z,24224.00
2022-08-01T12:00:24.396Z,22144.00
2022-08-01T12:01:24.382Z,21856.00
2022-08-01T12:02:30.237Z,22656.00
2022-08-01T12:03:33.185Z,22880.00
2022-08-01T12:04:24.457Z,23008.00
2022-08-01T12:05:24.850Z,23680.00
2022-08-01T12:06:24.507Z,23232.00
2022-08-01T12:07:24.534Z,21952.00
2022-08-01T12:08:24.560Z,20832.00
2022-08-01T12:09:24.587Z,20096.00
2022-08-01T12:10:24.624Z,19456.00
2022-08-01T12:11:24.639Z,19264.00
2022-08-01T12:12:24.663Z,19392.00
2022-08-01T12:13:24.689Z,19584.00
2022-08-01T12:14:24.713Z,19776.00
2022-08-01T12:15:24.740Z,20064.00
2022-08-01T12:16:29.045Z,20256.00
2022-08-01T12:17:24.816Z,20352.00
2022-08-01T12:18:24.831Z,20480.00